createdAt,value
2022-12-25T00:02:21.544Z,101551.11
2022-12-25T00:04:53.422Z,101559.76
2022-12-25T00:07:24.259Z,101546.98
2022-12-25T00:09:55.828Z,101535.77
2022-12-25T00:12:26.962Z,101520.73
2022-12-25T00:14:55.492Z,101525.08
2022-12-25T00:17:24.235Z,101532.73
2022-12-25T00:19:52.446Z,101524.79
2022-12-25T00:22:20.691Z,101531.21
2022-12-25T00:24:53.319Z,101543.88
2022-12-25T00:27:21.949Z,101549.64
2022-12-25T00:29:57.788Z,101557.80
2022-12-25T00:32:26.467Z,101565.16
2022-12-25T00:34:57.270Z,101573.04
2022-12-25T00:37:29.046Z,101581.77
2022-12-25T00:40:00.445Z,101574.84
2022-12-25T00:42:29.429Z,101578.68
2022-12-25T00:45:02.187Z,101580.11
2022-12-25T00:47:34.081Z,101577.89
2022-12-25T00:50:02.365Z,101575.66
2022-12-25T00:52:37.388Z,101580.73
2022-12-25T00:55:06.537Z,101583.67
2022-12-25T00:57:38.970Z,101587.86
2022-12-25T01:00:08.301Z,101579.70
2022-12-25T01:02:36.612Z,101574.64
2022-12-25T01:05:06.540Z,101577.53
2022-12-25T01:07:38.321Z,101579.40
2022-12-25T01:10:26.207Z,101589.77
2022-12-25T01:12:54.838Z,101592.36
2022-12-25T01:15:23.771Z,101592.86
2022-12-25T01:17:55.213Z,101592.88
2022-12-25T01:20:24.001Z,101592.16
2022-12-25T01:22:52.634Z,101581.55
2022-12-25T01:25:25.758Z,101571.27
2022-12-25T01:27:54.459Z,101566.23
2022-12-25T01:30:22.965Z,101587.02
2022-12-25T01:32:54.409Z,101594.48
2022-12-25T01:35:23.089Z,101601.59
2022-12-25T01:37:55.493Z,101603.72
2022-12-25T01:40:26.259Z,101605.29
2022-12-25T01:42:54.799Z,101605.59
2022-12-25T01:45:40.016Z,101608.19
2022-12-25T01:48:15.712Z,101604.70
2022-12-25T01:50:50.575Z,101599.83
2022-12-25T01:53:22.560Z,101599.32
2022-12-25T01:55:58.156Z,101607.66
2022-12-25T01:58:26.858Z,101604.95
2022-12-25T02:00:58.529Z,101611.90
2022-12-25T02:03:29.541Z,101617.84
2022-12-25T02:05:58.445Z,101627.91
2022-12-25T02:08:26.932Z,101639.19
2022-12-25T02:11:03.883Z,101648.21
2022-12-25T02:13:32.902Z,101659.14
2022-12-25T02:16:18.443Z,101660.88
2022-12-25T02:19:02.562Z,101675.30
2022-12-25T02:22:06.750Z,101677.40
2022-12-25T02:25:00.396Z,101675.99
2022-12-25T02:27:56.579Z,101675.31
2022-12-25T02:30:25.012Z,101675.49
2022-12-25T02:33:21.824Z,101680.39
2022-12-25T02:35:55.226Z,101683.71
2022-12-25T02:38:37.330Z,101687.67
2022-12-25T02:41:14.413Z,101686.80
2022-12-25T02:44:04.638Z,101701.37
2022-12-25T02:46:52.814Z,101706.73
2022-12-25T02:49:44.776Z,101715.56
2022-12-25T02:52:38.866Z,101720.73
2022-12-25T02:55:34.518Z,101722.97
2022-12-25T02:58:27.444Z,101734.95
2022-12-25T03:01:44.523Z,101743.78
2022-12-25T03:04:36.868Z,101746.52
2022-12-25T03:07:27.057Z,101748.42
2022-12-25T03:10:25.229Z,101759.73
2022-12-25T03:13:14.370Z,101765.61
2022-12-25T03:16:01.181Z,101771.02
2022-12-25T03:18:41.150Z,101781.92
2022-12-25T03:21:28.862Z,101794.41
2022-12-25T03:24:04.927Z,101809.39
2022-12-25T03:26:52.869Z,101815.36
2022-12-25T03:29:39.975Z,101822.02
2022-12-25T03:32:36.321Z,101834.75
2022-12-25T03:35:29.462Z,101842.11
2022-12-25T03:38:42.232Z,101850.15
2022-12-25T03:42:00.883Z,101857.49
2022-12-25T03:45:22.273Z,101862.73
2022-12-25T03:48:13.521Z,101871.94
2022-12-25T03:51:03.900Z,101888.81
2022-12-25T03:53:59.952Z,101896.73
2022-12-25T03:56:48.256Z,101904.58
2022-12-25T03:59:39.994Z,101899.23
2022-12-25T04:02:30.357Z,101906.73
2022-12-25T04:05:17.607Z,101915.95
2022-12-25T04:08:04.725Z,101916.00
2022-12-25T04:10:59.681Z,101928.48
2022-12-25T04:13:47.918Z,101936.84
2022-12-25T04:19:44.819Z,101955.78
2022-12-25T04:22:36.119Z,101953.75
2022-12-25T04:25:23.056Z,101952.56
2022-12-25T04:28:12.600Z,101951.02
2022-12-25T04:30:59.594Z,101949.09
2022-12-25T04:33:52.850Z,101956.36
2022-12-25T04:36:21.975Z,101967.63
2022-12-25T04:38:50.819Z,101971.12
2022-12-25T04:41:19.378Z,101972.50
2022-12-25T04:43:48.030Z,101970.45
2022-12-25T04:46:18.873Z,101973.39
2022-12-25T04:48:47.172Z,101971.14
2022-12-25T04:51:21.479Z,101970.30
2022-12-25T04:53:53.920Z,101975.91
2022-12-25T04:56:23.161Z,101987.23
2022-12-25T04:58:54.499Z,101997.34
2022-12-25T05:01:23.332Z,102009.88
2022-12-25T05:03:51.883Z,102018.96
2022-12-25T05:06:23.845Z,102016.77
2022-12-25T05:08:54.497Z,102018.56
2022-12-25T05:11:23.045Z,102016.33
2022-12-25T05:13:53.875Z,102016.34
2022-12-25T05:16:22.798Z,102023.48
2022-12-25T05:18:52.976Z,102020.88
2022-12-25T05:21:21.671Z,102027.83
2022-12-25T05:23:54.468Z,102033.74
2022-12-25T05:26:25.627Z,102024.05
2022-12-25T05:28:54.905Z,102023.39
2022-12-25T05:31:23.467Z,102028.45
2022-12-25T05:33:55.926Z,102033.17
2022-12-25T05:36:27.359Z,102032.98
2022-12-25T05:38:58.971Z,102038.87
2022-12-25T05:41:32.255Z,102035.05
2022-12-25T05:44:02.956Z,102034.19
2022-12-25T05:46:31.452Z,102031.14
2022-12-25T05:49:00.126Z,102035.48
2022-12-25T05:51:29.016Z,102034.08
2022-12-25T05:53:57.124Z,102033.56
2022-12-25T05:56:25.667Z,102033.38
2022-12-25T05:58:54.656Z,102040.20
2022-12-25T06:01:26.216Z,102040.02
2022-12-25T06:03:55.133Z,102048.67
2022-12-25T06:06:24.036Z,102058.16
2022-12-25T06:08:56.090Z,102063.64
2022-12-25T06:11:26.279Z,102073.13
2022-12-25T06:13:57.198Z,102075.72
2022-12-25T06:16:26.162Z,102074.25
2022-12-25T06:18:54.826Z,102071.23
2022-12-25T06:21:23.484Z,102078.81
2022-12-25T06:23:54.738Z,102088.30
2022-12-25T06:26:23.332Z,102093.48
2022-12-25T06:28:52.209Z,102094.84
2022-12-25T06:31:26.044Z,102094.77
2022-12-25T06:33:54.782Z,102097.48
2022-12-25T06:36:26.787Z,102101.60
2022-12-25T06:38:58.040Z,102103.30
2022-12-25T06:41:28.306Z,102108.48
2022-12-25T06:44:01.960Z,102112.63
2022-12-25T06:46:32.574Z,102117.80
2022-12-25T06:49:02.436Z,102122.27
2022-12-25T06:51:33.222Z,102124.13
2022-12-25T06:54:04.983Z,102127.23
2022-12-25T06:56:38.402Z,102130.66
2022-12-25T06:59:12.589Z,102133.38
2022-12-25T07:01:57.621Z,102140.61
2022-12-25T07:04:46.777Z,102149.80
2022-12-25T07:07:20.775Z,102148.41
2022-12-25T07:09:52.140Z,102152.35
2022-12-25T07:12:24.149Z,102155.62
2022-12-25T07:14:56.771Z,102155.20
2022-12-25T07:17:26.858Z,102164.04
2022-12-25T07:20:00.469Z,102172.19
2022-12-25T07:22:31.132Z,102172.20
2022-12-25T07:24:59.582Z,102165.92
2022-12-25T07:27:29.908Z,102172.66
2022-12-25T07:30:01.077Z,102167.41
2022-12-25T07:32:32.528Z,102168.47
2022-12-25T07:35:03.313Z,102168.45
2022-12-25T07:37:31.974Z,102168.62
2022-12-25T07:40:00.997Z,102168.42
2022-12-25T07:42:32.780Z,102175.84
2022-12-25T07:45:07.192Z,102177.20
2022-12-25T07:47:39.352Z,102179.80
2022-12-25T07:50:08.952Z,102184.44
2022-12-25T07:52:43.250Z,102182.63
2022-12-25T07:55:15.547Z,102172.20
2022-12-25T07:57:47.022Z,102171.44
2022-12-25T08:00:16.638Z,102176.06
2022-12-25T08:02:45.537Z,102180.81
2022-12-25T08:05:14.939Z,102186.44
2022-12-25T08:07:57.108Z,102181.71
2022-12-25T08:10:29.949Z,102178.66
2022-12-25T08:12:58.557Z,102178.51
2022-12-25T08:15:27.190Z,102178.23
2022-12-25T08:17:56.754Z,102178.22
2022-12-25T08:20:25.399Z,102179.58
2022-12-25T08:22:55.762Z,102174.16
2022-12-25T08:25:24.116Z,102167.66
2022-12-25T08:27:57.404Z,102159.42
2022-12-25T08:30:32.943Z,102161.41
2022-12-25T08:33:01.835Z,102157.39
2022-12-25T08:35:30.538Z,102162.52
2022-12-25T08:38:06.753Z,102156.73
2022-12-25T08:40:36.832Z,102157.63
2022-12-25T08:43:12.624Z,102154.91
2022-12-25T08:45:41.343Z,102154.73
2022-12-25T08:48:12.734Z,102162.23
2022-12-25T08:50:41.343Z,102160.57
2022-12-25T08:53:09.590Z,102168.75
2022-12-25T08:55:41.223Z,102175.39
2022-12-25T08:58:09.612Z,102181.67
2022-12-25T09:00:38.471Z,102196.35
2022-12-25T09:03:12.115Z,102202.54
2022-12-25T09:05:40.487Z,102201.14
2022-12-25T09:08:11.211Z,102196.20
2022-12-25T09:10:42.126Z,102204.41
2022-12-25T09:13:10.891Z,102203.51
2022-12-25T09:15:39.883Z,102210.23
2022-12-25T09:18:08.875Z,102211.52
2022-12-25T09:20:37.359Z,102213.33
2022-12-25T09:23:11.667Z,102215.46
2022-12-25T09:25:42.478Z,102217.56
2022-12-25T09:28:11.522Z,102228.15
2022-12-25T09:30:44.384Z,102240.45
2022-12-25T09:33:13.158Z,102244.92
2022-12-25T09:35:41.731Z,102247.83
2022-12-25T09:38:10.324Z,102248.84
2022-12-25T09:40:38.864Z,102253.46
2022-12-25T09:43:07.338Z,102261.55
2022-12-25T09:45:40.606Z,102267.27
2022-12-25T09:48:16.879Z,102263.10
2022-12-25T09:51:08.899Z,102262.95
2022-12-25T09:53:44.679Z,102262.40
2022-12-25T09:56:26.947Z,102266.73
2022-12-25T09:58:56.072Z,102266.66
2022-12-25T10:02:03.545Z,102276.02
2022-12-25T10:05:11.145Z,102273.92
2022-12-25T10:08:25.347Z,102282.41
2022-12-25T10:11:22.796Z,102278.23
2022-12-25T10:14:26.603Z,102280.45
2022-12-25T10:17:44.818Z,102269.45
2022-12-25T10:20:27.393Z,102273.21
2022-12-25T10:23:01.638Z,102267.23
2022-12-25T10:25:30.358Z,102263.17
2022-12-25T10:28:12.946Z,102267.27
2022-12-25T10:30:45.861Z,102271.92
2022-12-25T10:33:18.371Z,102270.18
2022-12-25T10:35:49.642Z,102269.63
2022-12-25T10:38:20.457Z,102269.17
2022-12-25T10:41:18.032Z,102274.45
2022-12-25T10:43:56.427Z,102277.27
2022-12-25T10:46:29.208Z,102278.56
2022-12-25T10:49:04.038Z,102278.24
2022-12-25T10:51:36.939Z,102276.70
2022-12-25T10:54:26.358Z,102274.65
2022-12-25T10:57:13.996Z,102274.93
2022-12-25T10:59:50.474Z,102268.50
2022-12-25T11:02:27.644Z,102269.30
2022-12-25T11:05:06.030Z,102269.41
2022-12-25T11:07:49.131Z,102275.08
2022-12-25T11:10:44.864Z,102279.68
2022-12-25T11:13:49.636Z,102269.80
2022-12-25T11:16:42.556Z,102267.05
2022-12-25T11:19:40.883Z,102267.35
2022-12-25T11:22:20.333Z,102269.69
2022-12-25T11:24:48.961Z,102267.16
2022-12-25T11:27:31.350Z,102261.48
2022-12-25T11:30:09.998Z,102256.32
2022-12-25T11:32:58.787Z,102249.95
2022-12-25T11:35:35.363Z,102250.52
2022-12-25T11:38:07.987Z,102244.48
2022-12-25T11:40:45.731Z,102236.21
2022-12-25T11:43:57.227Z,102236.95
2022-12-25T11:46:35.233Z,102245.82
2022-12-25T11:49:11.134Z,102253.14
2022-12-25T11:51:43.087Z,102251.48
2022-12-25T11:54:20.806Z,102250.60
2022-12-25T11:56:50.225Z,102249.15
2022-12-25T11:59:33.495Z,102253.11
2022-12-25T12:02:22.248Z,102254.61
2022-12-25T12:05:01.009Z,102250.63
2022-12-25T12:07:34.733Z,102249.08
2022-12-25T12:10:44.635Z,102248.84
2022-12-25T12:13:19.083Z,102240.27
2022-12-25T12:15:50.369Z,102241.02
2022-12-25T12:18:50.009Z,102239.35
2022-12-25T12:21:24.881Z,102231.98
2022-12-25T12:24:12.241Z,102226.95
2022-12-25T12:26:43.569Z,102222.55
2022-12-25T12:29:34.912Z,102215.11
2022-12-25T12:32:06.118Z,102220.32
2022-12-25T12:34:43.203Z,102228.40
2022-12-25T12:37:25.007Z,102237.77
2022-12-25T12:40:02.078Z,102245.10
2022-12-25T12:42:47.128Z,102251.02
2022-12-25T12:45:25.157Z,102251.88
2022-12-25T12:47:54.593Z,102251.70
2022-12-25T12:50:43.274Z,102246.52
2022-12-25T12:53:34.374Z,102238.33
2022-12-25T12:56:23.809Z,102231.36
2022-12-25T12:58:52.271Z,102233.88
2022-12-25T13:01:33.894Z,102243.14
2022-12-25T13:04:33.364Z,102244.11
2022-12-25T13:07:14.045Z,102240.91
2022-12-25T13:10:01.079Z,102233.22
2022-12-25T13:12:29.740Z,102228.69
2022-12-25T13:14:58.473Z,102228.32
2022-12-25T13:17:32.295Z,102234.89
2022-12-25T13:20:04.235Z,102228.36
2022-12-25T13:22:38.728Z,102223.52
2022-12-25T13:25:21.667Z,102218.63
2022-12-25T13:28:00.492Z,102228.17
2022-12-25T13:30:31.215Z,102220.23
2022-12-25T13:33:01.115Z,102206.77
2022-12-25T13:35:30.643Z,102216.89
2022-12-25T13:37:59.988Z,102218.89
2022-12-25T13:40:32.835Z,102209.45
2022-12-25T13:43:04.895Z,102203.85
2022-12-25T13:45:36.573Z,102200.13
2022-12-25T13:48:16.959Z,102204.55
2022-12-25T13:50:49.341Z,102220.75
2022-12-25T13:53:19.050Z,102225.92
2022-12-25T13:55:53.393Z,102225.73
2022-12-25T13:58:34.748Z,102228.48
2022-12-25T14:01:04.591Z,102225.86
2022-12-25T14:03:49.982Z,102232.98
2022-12-25T14:06:30.695Z,102233.65
2022-12-25T14:09:00.131Z,102241.23
2022-12-25T14:11:30.941Z,102240.83
2022-12-25T14:14:04.047Z,102228.45
2022-12-25T14:16:33.426Z,102232.50
2022-12-25T14:19:04.447Z,102235.16
2022-12-25T14:21:36.715Z,102226.90
2022-12-25T14:24:05.504Z,102221.23
2022-12-25T14:26:36.387Z,102223.50
2022-12-25T14:29:16.897Z,102223.86
2022-12-25T14:31:51.834Z,102224.08
2022-12-25T14:34:26.162Z,102225.96
2022-12-25T14:36:55.430Z,102222.00
2022-12-25T14:39:37.661Z,102220.29
2022-12-25T14:42:24.735Z,102216.20
2022-12-25T14:45:08.495Z,102220.23
2022-12-25T14:48:02.023Z,102219.06
2022-12-25T14:50:43.050Z,102224.65
2022-12-25T14:53:25.798Z,102221.95
2022-12-25T14:55:56.412Z,102219.92
2022-12-25T14:58:30.616Z,102216.14
2022-12-25T15:01:01.780Z,102210.79
2022-12-25T15:03:38.690Z,102190.34
2022-12-25T15:06:20.071Z,102185.14
2022-12-25T15:09:03.640Z,102189.45
2022-12-25T15:11:32.666Z,102185.14
2022-12-25T15:14:01.195Z,102177.36
2022-12-25T15:16:36.356Z,102176.03
2022-12-25T15:19:10.246Z,102172.23
2022-12-25T15:21:38.996Z,102168.21
2022-12-25T15:24:14.090Z,102165.83
2022-12-25T15:26:42.993Z,102169.54
2022-12-25T15:29:11.517Z,102172.89
2022-12-25T15:31:43.753Z,102170.20
2022-12-25T15:34:21.734Z,102171.61
2022-12-25T15:36:54.528Z,102166.73
2022-12-25T15:39:25.116Z,102162.55
2022-12-25T15:42:12.677Z,102164.27
2022-12-25T15:44:44.244Z,102165.69
2022-12-25T15:47:14.201Z,102161.34
2022-12-25T15:49:45.362Z,102163.22
2022-12-25T15:52:20.627Z,102163.39
2022-12-25T15:54:49.205Z,102165.61
2022-12-25T15:57:29.070Z,102157.69
2022-12-25T15:59:57.763Z,102137.46
2022-12-25T16:02:26.582Z,102137.14
2022-12-25T16:04:56.135Z,102129.70
2022-12-25T16:07:26.782Z,102138.23
2022-12-25T16:09:55.352Z,102140.48
2022-12-25T16:12:24.138Z,102130.27
2022-12-25T16:14:52.533Z,102129.95
2022-12-25T16:17:22.300Z,102133.09
2022-12-25T16:19:54.082Z,102138.11
2022-12-25T16:22:26.370Z,102128.95
2022-12-25T16:24:55.340Z,102128.27
2022-12-25T16:27:33.074Z,102117.55
2022-12-25T16:30:01.482Z,102105.23
2022-12-25T16:32:30.138Z,102094.66
2022-12-25T16:34:58.573Z,102099.56
2022-12-25T16:37:28.125Z,102101.11
2022-12-25T16:39:56.608Z,102088.60
2022-12-25T16:42:25.281Z,102086.64
2022-12-25T16:44:55.963Z,102083.62
2022-12-25T16:47:24.427Z,102081.64
2022-12-25T16:49:53.250Z,102076.38
2022-12-25T16:52:24.015Z,102083.61
2022-12-25T16:54:52.402Z,102092.59
2022-12-25T16:57:25.531Z,102092.70
2022-12-25T16:59:54.131Z,102093.91
2022-12-25T17:02:23.161Z,102092.15
2022-12-25T17:04:54.343Z,102094.02
2022-12-25T17:07:25.563Z,102097.27
2022-12-25T17:09:54.405Z,102106.76
2022-12-25T17:12:28.302Z,102114.84
2022-12-25T17:15:02.718Z,102123.94
2022-12-25T17:17:31.198Z,102123.20
2022-12-25T17:19:59.724Z,102114.15
2022-12-25T17:22:28.198Z,102109.08
2022-12-25T17:24:58.012Z,102101.05
2022-12-25T17:27:26.635Z,102093.21
2022-12-25T17:29:55.396Z,102088.83
2022-12-25T17:32:24.241Z,102092.77
2022-12-25T17:35:01.857Z,102095.67
2022-12-25T17:37:30.662Z,102096.20
2022-12-25T17:40:02.418Z,102099.83
2022-12-25T17:42:36.947Z,102109.16
2022-12-25T17:45:06.136Z,102121.91
2022-12-25T17:47:37.395Z,102136.65
2022-12-25T17:50:06.310Z,102140.42
2022-12-25T17:52:35.113Z,102136.58
2022-12-25T17:55:05.488Z,102127.92
2022-12-25T17:57:34.131Z,102127.95
2022-12-25T18:00:02.976Z,102124.16
2022-12-25T18:02:31.896Z,102123.48
2022-12-25T18:05:01.046Z,102116.41
2022-12-25T18:07:29.817Z,102116.96
2022-12-25T18:09:58.442Z,102115.41
2022-12-25T18:12:26.917Z,102115.08
2022-12-25T18:14:55.551Z,102113.15
2022-12-25T18:17:30.080Z,102109.50
2022-12-25T18:19:58.845Z,102108.25
2022-12-25T18:22:27.498Z,102092.85
2022-12-25T18:24:56.172Z,102081.75
2022-12-25T18:27:25.064Z,102068.07
2022-12-25T18:29:56.158Z,102064.02
2022-12-25T18:32:27.965Z,102069.30
2022-12-25T18:34:57.096Z,102074.98
2022-12-25T18:37:25.750Z,102077.58
2022-12-25T18:39:54.226Z,102074.23
2022-12-25T18:42:40.855Z,102058.47
2022-12-25T18:45:15.410Z,102048.25
2022-12-25T18:47:44.029Z,102033.20
2022-12-25T18:50:13.465Z,102024.83
2022-12-25T18:52:50.689Z,102034.16
2022-12-25T18:55:20.531Z,102039.71
2022-12-25T18:57:53.269Z,102063.14
2022-12-25T19:00:22.360Z,102093.35
2022-12-25T19:02:51.184Z,102093.40
2022-12-25T19:05:20.057Z,102091.70
2022-12-25T19:07:48.988Z,102086.45
2022-12-25T19:10:21.579Z,102082.86
2022-12-25T19:12:56.040Z,102075.15
2022-12-25T19:15:27.761Z,102072.98
2022-12-25T19:18:02.897Z,102078.77
2022-12-25T19:20:35.416Z,102065.69
2022-12-25T19:23:09.593Z,102056.43
2022-12-25T19:25:40.958Z,102059.30
2022-12-25T19:28:09.643Z,102062.14
2022-12-25T19:30:40.047Z,102059.08
2022-12-25T19:33:17.221Z,102052.77
2022-12-25T19:35:47.676Z,102034.27
2022-12-25T19:41:03.814Z,102034.88
2022-12-25T19:43:38.701Z,102029.89
2022-12-25T19:46:20.458Z,102029.08
2022-12-25T19:48:49.277Z,102017.02
2022-12-25T19:51:26.391Z,102013.63
2022-12-25T19:54:07.111Z,102020.11
2022-12-25T19:56:39.375Z,102027.50
2022-12-25T19:59:08.049Z,102018.89
2022-12-25T20:01:37.107Z,102008.90
2022-12-25T20:04:08.483Z,102013.45
2022-12-25T20:06:46.308Z,102023.08
2022-12-25T20:09:21.217Z,102026.43
2022-12-25T20:11:54.448Z,102020.60
2022-12-25T20:14:23.150Z,102017.05
2022-12-25T20:16:53.494Z,102013.79
2022-12-25T20:19:22.018Z,102018.16
2022-12-25T20:21:53.953Z,102012.63
2022-12-25T20:24:24.846Z,102010.42
2022-12-25T20:26:58.818Z,102017.04
2022-12-25T20:29:35.458Z,102023.14
2022-12-25T20:32:08.530Z,102012.36
2022-12-25T20:34:37.176Z,102006.12
2022-12-25T20:37:05.581Z,102004.03
2022-12-25T20:39:37.220Z,102000.56
2022-12-25T20:42:05.680Z,102005.95
2022-12-25T20:44:34.394Z,102004.55
2022-12-25T20:47:04.336Z,101996.07
2022-12-25T20:49:33.470Z,101977.85
2022-12-25T20:52:05.573Z,101968.40
2022-12-25T20:54:34.392Z,101968.95
2022-12-25T20:57:03.068Z,101960.02
2022-12-25T20:59:37.140Z,101950.71
2022-12-25T21:02:06.925Z,101945.05
2022-12-25T21:04:35.472Z,101934.02
2022-12-25T21:07:06.176Z,101928.85
2022-12-25T21:09:39.940Z,101926.98
2022-12-25T21:12:11.313Z,101926.55
2022-12-25T21:14:44.979Z,101932.15
2022-12-25T21:17:16.507Z,101930.08
2022-12-25T21:19:45.326Z,101921.29
2022-12-25T21:22:14.097Z,101918.05
2022-12-25T21:24:45.719Z,101918.08
2022-12-25T21:27:14.101Z,101916.05
2022-12-25T21:29:42.334Z,101911.75
2022-12-25T21:32:29.350Z,101914.89
2022-12-25T21:35:01.149Z,101908.67
2022-12-25T21:37:36.021Z,101901.54
2022-12-25T21:40:04.836Z,101904.67
2022-12-25T21:42:36.544Z,101896.38
2022-12-25T21:45:05.396Z,101886.52
2022-12-25T21:48:02.172Z,101875.95
2022-12-25T21:50:42.037Z,101864.00
2022-12-25T21:53:15.660Z,101845.80
2022-12-25T21:55:44.532Z,101828.09
2022-12-25T21:58:13.030Z,101820.08
2022-12-25T22:00:41.794Z,101804.09
2022-12-25T22:03:13.441Z,101785.11
2022-12-25T22:06:01.086Z,101782.13
2022-12-25T22:08:36.031Z,101769.79
2022-12-25T22:11:05.259Z,101757.08
2022-12-25T22:13:52.356Z,101752.55
2022-12-25T22:16:38.961Z,101742.45
2022-12-25T22:19:28.531Z,101732.91
2022-12-25T22:21:57.121Z,101721.46
2022-12-25T22:24:25.811Z,101709.63
2022-12-25T22:26:56.464Z,101715.00
2022-12-25T22:29:25.086Z,101711.52
2022-12-25T22:31:53.586Z,101701.77
2022-12-25T22:34:22.200Z,101689.80
2022-12-25T22:36:51.132Z,101686.30
2022-12-25T22:39:19.681Z,101699.78
2022-12-25T22:41:54.294Z,101696.61
2022-12-25T22:44:23.710Z,101676.84
2022-12-25T22:46:52.473Z,101668.67
2022-12-25T22:49:22.102Z,101652.91
2022-12-25T22:51:53.309Z,101655.31
2022-12-25T22:54:23.045Z,101647.86
2022-12-25T22:56:53.714Z,101639.03
2022-12-25T22:59:23.867Z,101634.54
2022-12-25T23:01:52.442Z,101633.31
2022-12-25T23:04:21.464Z,101636.42
2022-12-25T23:06:51.918Z,101645.62
2022-12-25T23:09:28.840Z,101636.60
2022-12-25T23:11:59.004Z,101635.90
2022-12-25T23:14:43.174Z,101632.10
2022-12-25T23:17:33.074Z,101624.67
2022-12-25T23:20:20.986Z,101620.55
2022-12-25T23:23:07.812Z,101612.25
2022-12-25T23:25:54.828Z,101611.39
2022-12-25T23:28:41.501Z,101609.32
2022-12-25T23:31:12.807Z,101606.87
2022-12-25T23:33:46.817Z,101604.45
2022-12-25T23:36:15.736Z,101602.27
2022-12-25T23:38:46.609Z,101600.55
2022-12-25T23:41:15.170Z,101600.39
2022-12-25T23:43:43.921Z,101603.99
2022-12-25T23:46:12.692Z,101603.95
2022-12-25T23:48:45.277Z,101616.60
2022-12-25T23:51:14.186Z,101616.55
2022-12-25T23:53:42.857Z,101600.23
2022-12-25T23:56:12.587Z,101590.99
2022-12-25T23:58:41.511Z,101585.96
